< < Back
Terminal Aerodrome Forecast


Current Version              Previous Versions:   1  2  3  4  5  6  7  8  9  

Terminal Aerodrome Forecast

010
FTUS42 KJAX 300500 RRA
TAFGNV
TAF
KGNV 300550Z 3006/3106 32003KT P6SM FEW070 FEW250
     FM302100 27006KT P6SM SCT060
     FM310200 09003KT P6SM FEW070=



Latest METAR

218
SAUS70 KWBC 301300 RRD
MTRGNV
METAR KGNV 301253Z 33006KT 10SM CLR 24/18 A2999 RMK AO2 SLP153
T02440183


USA.gov is the U.S. government's official web portal to all federal, state and local government web resources and services.